Terminal Aerodrome Forecast
Issued by NWS Blacksburg, VA

Current Version | Previous Version | Graphics & Text | Print | Product List | Glossary On
Versions: 1 2 3 4 5 6 7 8 9 10 11 12 13 14 15 16 17 18 19 20 21
000
FTUS41 KRNK 220557 AAA
TAFBLF
TAF AMD
KBLF 220557Z 2206/2306 17008KT P6SM -RA OVC060
     FM220800 16005KT 4SM -RA BR OVC030
      TEMPO 2208/2210 2SM -RA OVC012
     FM221000 VRB03KT 2SM -RA BR OVC010
     FM221400 VRB03KT 2SM -RA BR OVC007
     FM222000 18005KT 4SM BR OVC007=

USA.gov is the U.S. government's official web portal to all federal, state and local government web resources and services.